< < Back
Terminal Aerodrome Forecast


Current Version              Previous Versions:   1  2  3  4  5  6  7  8  9  

Terminal Aerodrome Forecast

121
FTUS42 KGSP 221402 AAA
TAFHKY
TAF AMD
KHKY 221402Z 2214/2312 04007KT 3SM -DZ BR OVC006
      TEMPO 2214/2216 2SM -DZ BR SCT006 OVC012
     FM221800 04006KT 5SM BR OVC009
     FM230200 05005KT 2SM BR OVC005
     FM230800 04004KT 1SM -RA BR OVC003=



Latest METAR

660
SAUS70 KWBC 222200 RRL
MTRHKY
METAR KHKY 222153Z AUTO 09005KT 6SM BR OVC003 03/02 A3004 RMK AO2 CIG
002V007 SLP167 T00330022


USA.gov is the U.S. government's official web portal to all federal, state and local government web resources and services.